createdAt,value
2018-01-17T00:00:13.265Z,2.10
2018-01-17T00:02:40.798Z,2.20
2018-01-17T00:05:08.320Z,2.20
2018-01-17T00:07:35.847Z,2.20
2018-01-17T00:10:03.362Z,2.20
2018-01-17T00:12:30.911Z,2.30
2018-01-17T00:14:58.389Z,2.30
2018-01-17T00:17:25.856Z,2.30
2018-01-17T00:19:53.340Z,2.40
2018-01-17T00:22:20.817Z,2.40
2018-01-17T00:24:49.077Z,2.40
2018-01-17T00:27:16.544Z,2.40
2018-01-17T00:29:44.785Z,2.40
2018-01-17T00:32:12.260Z,2.40
2018-01-17T00:34:39.729Z,2.40
2018-01-17T00:37:07.968Z,2.50
2018-01-17T00:39:35.445Z,2.50
2018-01-17T00:42:02.924Z,2.40
2018-01-17T00:44:30.399Z,2.40
2018-01-17T00:46:58.636Z,2.30
2018-01-17T00:49:26.121Z,2.30
2018-01-17T00:51:53.593Z,2.20
2018-01-17T00:54:21.829Z,2.20
2018-01-17T00:56:49.306Z,2.20
2018-01-17T00:59:18.293Z,2.30
2018-01-17T01:01:45.764Z,2.30
2018-01-17T01:04:13.240Z,2.30
2018-01-17T01:06:41.475Z,2.30
2018-01-17T01:09:08.968Z,2.20
2018-01-17T01:11:37.200Z,2.30
2018-01-17T01:14:04.672Z,2.20
2018-01-17T01:16:32.265Z,2.20
2018-01-17T01:19:00.493Z,2.30
2018-01-17T01:21:28.736Z,2.30
2018-01-17T01:23:56.210Z,2.40
2018-01-17T01:26:23.690Z,2.40
2018-01-17T01:28:51.157Z,2.40
2018-01-17T01:31:18.674Z,2.50
2018-01-17T01:33:46.223Z,2.50
2018-01-17T01:36:13.743Z,2.50
2018-01-17T01:38:41.246Z,2.50
2018-01-17T01:41:09.468Z,2.50
2018-01-17T01:43:36.987Z,2.50
2018-01-17T01:46:04.490Z,2.50
2018-01-17T01:48:32.013Z,2.50
2018-01-17T01:50:59.515Z,2.50
2018-01-17T01:53:27.036Z,2.50
2018-01-17T01:55:54.538Z,2.50
2018-01-17T01:58:22.042Z,2.50
2018-01-17T02:00:49.552Z,2.50
2018-01-17T02:03:17.058Z,2.40
2018-01-17T02:05:44.566Z,2.40
2018-01-17T02:08:12.079Z,2.30
2018-01-17T02:10:39.582Z,2.30
2018-01-17T02:13:07.110Z,2.30
2018-01-17T02:15:34.618Z,2.30
2018-01-17T02:18:03.627Z,2.30
2018-01-17T02:20:31.872Z,2.30
2018-01-17T02:22:59.336Z,2.30
2018-01-17T02:25:26.808Z,2.40
2018-01-17T02:27:54.276Z,2.40
2018-01-17T02:30:22.511Z,2.40
2018-01-17T02:32:49.980Z,2.30
2018-01-17T02:35:17.457Z,2.40
2018-01-17T02:37:44.916Z,2.20
2018-01-17T02:40:24.346Z,2.00
2018-01-17T02:42:51.813Z,1.90
2018-01-17T02:45:19.304Z,1.80
2018-01-17T02:47:46.772Z,1.70
2018-01-17T02:50:14.239Z,1.70
2018-01-17T02:52:41.712Z,1.60
2018-01-17T02:55:09.188Z,1.30
2018-01-17T02:57:36.657Z,1.10
2018-01-17T03:00:04.120Z,1.00
2018-01-17T03:02:31.592Z,0.90
2018-01-17T03:04:59.832Z,0.90
2018-01-17T03:07:27.308Z,0.90
2018-01-17T03:09:54.777Z,0.90
2018-01-17T03:12:23.036Z,0.80
2018-01-17T03:14:50.510Z,0.70
2018-01-17T03:17:18.760Z,0.80
2018-01-17T03:19:46.241Z,0.70
2018-01-17T03:22:13.713Z,0.70
2018-01-17T03:24:41.957Z,0.60
2018-01-17T03:27:09.424Z,0.60
2018-01-17T03:29:36.900Z,0.70
2018-01-17T03:32:05.136Z,0.70
2018-01-17T03:34:32.621Z,0.70
2018-01-17T03:37:00.093Z,0.70
2018-01-17T03:39:28.361Z,0.60
2018-01-17T03:41:56.606Z,0.60
2018-01-17T03:44:24.076Z,0.60
2018-01-17T03:46:51.560Z,0.60
2018-01-17T03:49:19.788Z,0.60
2018-01-17T03:51:47.269Z,0.60
2018-01-17T03:54:14.747Z,0.60
2018-01-17T03:56:42.996Z,0.50
2018-01-17T03:59:10.468Z,0.50
2018-01-17T04:01:37.960Z,0.50
2018-01-17T04:04:05.427Z,0.50
2018-01-17T04:06:32.908Z,0.40
2018-01-17T04:09:00.372Z,0.40
2018-01-17T04:11:27.836Z,0.40
2018-01-17T04:13:55.320Z,0.40
2018-01-17T04:16:22.792Z,0.40
2018-01-17T04:18:51.044Z,0.40
2018-01-17T04:21:18.522Z,0.40
2018-01-17T04:23:46.009Z,0.50
2018-01-17T04:26:13.476Z,0.50
2018-01-17T04:28:40.968Z,0.50
2018-01-17T04:31:08.442Z,0.60
2018-01-17T04:33:35.917Z,0.50
2018-01-17T04:36:04.153Z,0.50
2018-01-17T04:38:31.632Z,0.50
2018-01-17T04:40:59.104Z,0.50
2018-01-17T04:43:26.580Z,0.50
2018-01-17T04:45:54.820Z,0.50
2018-01-17T04:48:22.299Z,0.50
2018-01-17T04:50:49.821Z,0.50
2018-01-17T04:53:17.322Z,0.50
2018-01-17T04:55:44.788Z,0.50
2018-01-17T04:58:13.032Z,0.60
2018-01-17T05:00:40.504Z,0.50
2018-01-17T05:03:07.982Z,0.50
2018-01-17T05:05:36.232Z,0.50
2018-01-17T05:08:03.960Z,0.50
2018-01-17T05:10:31.449Z,0.50
2018-01-17T05:12:58.921Z,0.50
2018-01-17T05:15:26.400Z,0.40
2018-01-17T05:17:54.637Z,0.40
2018-01-17T05:20:22.120Z,0.40
2018-01-17T05:22:49.592Z,0.40
2018-01-17T05:25:17.829Z,0.40
2018-01-17T05:27:45.980Z,0.30
2018-01-17T05:30:13.465Z,0.30
2018-01-17T05:32:40.933Z,0.40
2018-01-17T05:35:08.405Z,0.30
2018-01-17T05:37:36.656Z,0.30
2018-01-17T05:40:04.129Z,0.30
2018-01-17T05:42:31.607Z,0.30
2018-01-17T05:44:59.850Z,0.30
2018-01-17T05:47:27.324Z,0.30
2018-01-17T05:49:54.805Z,0.30
2018-01-17T05:52:23.048Z,0.30
2018-01-17T05:54:50.520Z,0.30
2018-01-17T05:57:18.004Z,0.30
2018-01-17T05:59:45.486Z,0.40
2018-01-17T06:02:12.980Z,0.40
2018-01-17T06:04:40.457Z,0.30
2018-01-17T06:07:07.932Z,0.30
2018-01-17T06:09:36.181Z,0.30
2018-01-17T06:12:03.656Z,0.30
2018-01-17T06:14:31.909Z,0.30
2018-01-17T06:16:59.392Z,0.30
2018-01-17T06:19:26.868Z,0.30
2018-01-17T06:21:54.344Z,0.30
2018-01-17T06:24:21.824Z,0.20
2018-01-17T06:26:49.376Z,0.30
2018-01-17T06:29:17.929Z,0.30
2018-01-17T06:31:46.161Z,0.30
2018-01-17T06:34:13.637Z,0.30
2018-01-17T06:36:41.139Z,0.30
2018-01-17T06:39:08.612Z,0.30
2018-01-17T06:41:36.095Z,0.30
2018-01-17T06:44:03.579Z,0.30
2018-01-17T06:46:31.825Z,0.40
2018-01-17T06:48:59.306Z,0.30
2018-01-17T06:51:27.565Z,0.40
2018-01-17T06:53:55.048Z,0.40
2018-01-17T06:56:23.292Z,0.50
2018-01-17T06:58:51.531Z,0.50
2018-01-17T07:01:19.004Z,0.40
2018-01-17T07:03:46.481Z,0.40
2018-01-17T07:06:13.952Z,0.50
2018-01-17T07:08:41.436Z,0.50
2018-01-17T07:11:09.676Z,0.50
2018-01-17T07:13:37.210Z,0.50
2018-01-17T07:16:04.732Z,0.50
2018-01-17T07:18:32.985Z,0.50
2018-01-17T07:21:00.455Z,0.50
2018-01-17T07:23:27.977Z,0.50
2018-01-17T07:25:55.444Z,0.60
2018-01-17T07:28:22.925Z,0.50
2018-01-17T07:30:50.408Z,0.50
2018-01-17T07:33:18.653Z,0.50
2018-01-17T07:35:46.136Z,0.50
2018-01-17T07:38:14.376Z,0.50
2018-01-17T07:40:41.857Z,0.50
2018-01-17T07:43:09.328Z,0.50
2018-01-17T07:45:37.576Z,0.50
2018-01-17T07:48:05.044Z,0.50
2018-01-17T07:50:32.528Z,0.50
2018-01-17T07:53:00.785Z,0.50
2018-01-17T07:55:28.508Z,0.50
2018-01-17T07:57:55.976Z,0.50
2018-01-17T08:00:23.448Z,0.40
2018-01-17T08:02:50.934Z,0.50
2018-01-17T08:05:19.177Z,0.50
2018-01-17T08:07:46.658Z,0.40
2018-01-17T08:10:14.134Z,0.50
2018-01-17T08:12:42.380Z,0.50
2018-01-17T08:15:09.860Z,0.50
2018-01-17T08:17:38.110Z,0.40
2018-01-17T08:20:05.579Z,0.40
2018-01-17T08:22:33.064Z,0.40
2018-01-17T08:25:01.300Z,0.40
2018-01-17T08:27:28.810Z,0.40
2018-01-17T08:29:57.040Z,0.30
2018-01-17T08:32:24.512Z,0.30
2018-01-17T08:34:51.992Z,0.40
2018-01-17T08:37:20.233Z,0.40
2018-01-17T08:39:47.713Z,0.40
2018-01-17T08:42:15.192Z,0.40
2018-01-17T08:44:43.436Z,0.40
2018-01-17T08:47:10.908Z,0.40
2018-01-17T08:49:39.160Z,0.50
2018-01-17T08:52:06.653Z,0.50
2018-01-17T08:54:34.908Z,0.50
2018-01-17T08:57:02.380Z,0.50
2018-01-17T08:59:29.869Z,0.50
2018-01-17T09:01:57.352Z,0.60
2018-01-17T09:04:24.840Z,0.60
2018-01-17T09:06:52.333Z,0.60
2018-01-17T09:09:19.817Z,0.60
2018-01-17T09:11:47.305Z,0.60
2018-01-17T09:14:14.777Z,0.60
2018-01-17T09:16:42.276Z,0.60
2018-01-17T09:19:09.740Z,0.60
2018-01-17T09:21:37.220Z,0.60
2018-01-17T09:24:04.697Z,0.60
2018-01-17T09:26:32.181Z,0.70
2018-01-17T09:28:59.656Z,0.70
2018-01-17T09:31:27.900Z,0.70
2018-01-17T09:33:55.368Z,0.70
2018-01-17T09:36:22.858Z,0.60
2018-01-17T09:38:50.328Z,0.70
2018-01-17T09:41:17.809Z,0.70
2018-01-17T09:43:45.288Z,0.70
2018-01-17T09:46:12.768Z,0.60
2018-01-17T09:48:41.013Z,0.70
2018-01-17T09:51:08.490Z,0.60
2018-01-17T09:53:35.964Z,0.70
2018-01-17T09:56:04.200Z,0.70
2018-01-17T09:58:31.703Z,0.70
2018-01-17T10:00:59.163Z,0.70
2018-01-17T10:03:27.401Z,0.80
2018-01-17T10:05:54.882Z,0.80
2018-01-17T10:08:22.358Z,0.70
2018-01-17T10:10:50.601Z,0.70
2018-01-17T10:13:18.069Z,0.70
2018-01-17T10:15:45.548Z,0.70
2018-01-17T10:18:13.785Z,0.60
2018-01-17T10:20:41.276Z,0.60
2018-01-17T10:23:09.509Z,0.70
2018-01-17T10:25:36.996Z,0.70
2018-01-17T10:28:04.465Z,0.70
2018-01-17T10:30:32.713Z,0.70
2018-01-17T10:33:00.180Z,0.60
2018-01-17T10:35:27.668Z,0.70
2018-01-17T10:37:55.904Z,0.70
2018-01-17T10:40:23.543Z,0.70
2018-01-17T10:42:51.216Z,0.80
2018-01-17T10:45:18.725Z,0.70
2018-01-17T10:47:47.185Z,0.80
2018-01-17T10:50:14.713Z,0.80
2018-01-17T10:52:42.193Z,0.70
2018-01-17T10:55:09.672Z,0.70
2018-01-17T10:57:37.159Z,0.70
2018-01-17T11:00:04.628Z,0.70
2018-01-17T11:02:32.112Z,0.70
2018-01-17T11:04:59.589Z,0.80
2018-01-17T11:07:27.073Z,0.80
2018-01-17T11:09:55.312Z,0.90
2018-01-17T11:12:22.797Z,0.90
2018-01-17T11:14:50.271Z,0.90
2018-01-17T11:17:18.520Z,0.90
2018-01-17T11:19:45.996Z,0.90
2018-01-17T11:22:14.260Z,0.80
2018-01-17T11:24:41.790Z,0.80
2018-01-17T11:27:09.234Z,0.80
2018-01-17T11:29:36.712Z,0.80
2018-01-17T11:32:04.191Z,0.90
2018-01-17T11:34:31.681Z,1.00
2018-01-17T11:36:59.916Z,1.10
2018-01-17T11:39:27.409Z,1.10
2018-01-17T11:41:55.640Z,1.10
2018-01-17T11:44:23.128Z,1.10
2018-01-17T11:46:50.849Z,1.10
2018-01-17T11:49:18.324Z,1.10
2018-01-17T11:51:45.804Z,1.10
2018-01-17T11:54:14.796Z,1.10
2018-01-17T11:56:42.267Z,1.10
2018-01-17T11:59:10.529Z,1.10
2018-01-17T12:01:38.011Z,1.10
2018-01-17T12:04:06.261Z,1.10
2018-01-17T12:06:33.744Z,1.00
2018-01-17T12:09:01.996Z,1.00
2018-01-17T12:11:29.480Z,1.00
2018-01-17T12:13:57.725Z,1.10
2018-01-17T12:16:25.204Z,1.00
2018-01-17T12:18:52.677Z,1.00
2018-01-17T12:21:20.934Z,1.10
2018-01-17T12:23:48.408Z,1.10
2018-01-17T12:26:16.656Z,1.20
2018-01-17T12:28:44.135Z,1.20
2018-01-17T12:31:11.616Z,1.20
2018-01-17T12:33:39.092Z,1.20
2018-01-17T12:36:06.628Z,1.20
2018-01-17T12:38:34.073Z,1.30
2018-01-17T12:41:02.317Z,1.20
2018-01-17T12:43:29.819Z,1.30
2018-01-17T12:45:58.059Z,1.40
2018-01-17T12:48:25.564Z,1.40
2018-01-17T12:50:53.792Z,1.40
2018-01-17T12:53:21.268Z,1.40
2018-01-17T12:55:48.742Z,1.40
2018-01-17T12:58:17.000Z,1.40
2018-01-17T13:00:44.477Z,1.40
2018-01-17T13:03:12.713Z,1.40
2018-01-17T13:05:40.197Z,1.30
2018-01-17T13:08:07.668Z,1.40
2018-01-17T13:10:35.913Z,1.40
2018-01-17T13:13:03.388Z,1.40
2018-01-17T13:15:30.864Z,1.50
2018-01-17T13:17:59.100Z,1.60
2018-01-17T13:20:26.632Z,1.50
2018-01-17T13:22:54.828Z,1.50
2018-01-17T13:25:22.308Z,1.50
2018-01-17T13:27:50.562Z,1.70
2018-01-17T13:30:18.829Z,1.70
2018-01-17T13:32:46.305Z,1.70
2018-01-17T13:35:13.788Z,1.80
2018-01-17T13:37:41.269Z,1.80
2018-01-17T13:40:09.496Z,1.80
2018-01-17T13:42:36.972Z,1.80
2018-01-17T13:45:04.450Z,1.90
2018-01-17T13:47:32.693Z,1.80
2018-01-17T13:50:00.312Z,1.80
2018-01-17T13:52:27.793Z,1.90
2018-01-17T13:54:55.257Z,2.00
2018-01-17T13:57:22.744Z,2.00
2018-01-17T13:59:50.204Z,1.90
2018-01-17T14:02:17.689Z,1.70
2018-01-17T14:04:45.159Z,1.50
2018-01-17T14:07:12.650Z,1.30
2018-01-17T14:09:40.116Z,1.20
2018-01-17T14:12:07.593Z,1.10
2018-01-17T14:14:35.388Z,1.00
2018-01-17T14:17:03.632Z,1.00
2018-01-17T14:19:31.120Z,0.90
2018-01-17T14:21:59.356Z,0.80
2018-01-17T14:24:26.846Z,0.80
2018-01-17T14:26:55.089Z,0.70
2018-01-17T14:29:22.568Z,0.70
2018-01-17T14:31:50.812Z,0.90
2018-01-17T14:34:18.296Z,0.90
2018-01-17T14:36:45.799Z,0.90
2018-01-17T14:39:14.033Z,0.70
2018-01-17T14:41:41.516Z,0.70
2018-01-17T14:44:09.760Z,0.70
2018-01-17T14:46:37.254Z,0.60
2018-01-17T14:49:05.500Z,0.70
2018-01-17T14:51:32.981Z,0.70
2018-01-17T14:54:01.228Z,0.80
2018-01-17T14:56:28.728Z,0.80
2018-01-17T14:58:56.974Z,0.90
2018-01-17T15:01:24.457Z,0.90
2018-01-17T15:03:52.710Z,1.10
2018-01-17T15:06:20.188Z,1.10
2018-01-17T15:08:48.424Z,1.30
2018-01-17T15:11:15.916Z,1.30
2018-01-17T15:13:44.157Z,1.40
2018-01-17T15:16:11.640Z,1.40
2018-01-17T15:18:39.121Z,1.40
2018-01-17T15:21:07.377Z,1.40
2018-01-17T15:23:34.862Z,1.40
2018-01-17T15:26:02.345Z,1.50
2018-01-17T15:28:29.833Z,1.40
2018-01-17T15:30:57.308Z,1.30
2018-01-17T15:33:24.790Z,1.30
2018-01-17T15:35:53.032Z,1.30
2018-01-17T15:38:21.641Z,1.30
2018-01-17T15:40:49.108Z,1.40
2018-01-17T15:43:17.361Z,1.50
2018-01-17T15:45:44.840Z,1.50
2018-01-17T15:48:13.093Z,1.50
2018-01-17T15:50:40.583Z,1.50
2018-01-17T15:53:08.816Z,1.50
2018-01-17T15:55:36.302Z,1.50
2018-01-17T15:58:04.540Z,1.70
2018-01-17T16:00:32.033Z,1.70
2018-01-17T16:03:00.289Z,1.70
2018-01-17T16:05:27.797Z,1.70
2018-01-17T16:07:55.271Z,1.70
2018-01-17T16:10:22.779Z,1.80
2018-01-17T16:12:50.252Z,1.70
2018-01-17T16:15:18.488Z,1.80
2018-01-17T16:17:46.823Z,1.80
2018-01-17T16:20:14.292Z,1.80
2018-01-17T16:22:41.789Z,1.80
2018-01-17T16:25:09.261Z,1.80
2018-01-17T16:27:36.756Z,1.80
2018-01-17T16:30:04.994Z,1.80
2018-01-17T16:32:32.460Z,1.80
2018-01-17T16:34:59.936Z,1.80
2018-01-17T16:37:28.181Z,1.90
2018-01-17T16:39:55.645Z,1.90
2018-01-17T16:42:23.146Z,1.90
2018-01-17T16:44:51.381Z,1.90
2018-01-17T16:47:18.852Z,2.00
2018-01-17T16:49:46.325Z,2.00
2018-01-17T16:52:14.573Z,2.00
2018-01-17T16:54:42.047Z,2.00
2018-01-17T16:57:09.514Z,1.90
2018-01-17T16:59:37.760Z,1.90
2018-01-17T17:02:05.228Z,1.90
2018-01-17T17:04:32.704Z,2.00
2018-01-17T17:07:00.951Z,1.80
2018-01-17T17:09:28.432Z,1.80
2018-01-17T17:11:55.910Z,1.80
2018-01-17T17:14:24.181Z,1.90
2018-01-17T17:16:52.424Z,1.90
2018-01-17T17:19:19.904Z,1.90
2018-01-17T17:21:48.161Z,2.00
2018-01-17T17:24:15.645Z,2.00
2018-01-17T17:26:43.902Z,2.00
2018-01-17T17:29:11.369Z,2.00
2018-01-17T17:31:38.848Z,2.00
2018-01-17T17:34:07.088Z,1.90
2018-01-17T17:36:34.568Z,1.90
2018-01-17T17:39:02.049Z,1.90
2018-01-17T17:41:29.516Z,2.00
2018-01-17T17:43:56.995Z,2.10
2018-01-17T17:46:24.470Z,2.20
2018-01-17T17:48:51.944Z,2.10
2018-01-17T17:51:19.420Z,2.10
2018-01-17T17:53:46.899Z,2.00
2018-01-17T17:56:15.128Z,2.10
2018-01-17T17:58:42.613Z,2.10
2018-01-17T18:01:10.084Z,2.10
2018-01-17T18:03:38.329Z,2.10
2018-01-17T18:06:05.800Z,2.10
2018-01-17T18:08:33.272Z,2.10
2018-01-17T18:11:01.516Z,2.10
2018-01-17T18:13:29.020Z,2.10
2018-01-17T18:15:57.251Z,2.00
2018-01-17T18:18:25.480Z,2.00
2018-01-17T18:20:52.970Z,2.00
2018-01-17T18:23:20.441Z,2.10
2018-01-17T18:25:47.920Z,2.10
2018-01-17T18:28:15.404Z,2.20
2018-01-17T18:30:43.651Z,2.10
2018-01-17T18:33:11.126Z,2.00
2018-01-17T18:35:39.372Z,2.00
2018-01-17T18:38:06.852Z,2.00
2018-01-17T18:40:34.348Z,1.90
2018-01-17T18:43:01.824Z,1.90
2018-01-17T18:45:29.297Z,1.90
2018-01-17T18:47:56.785Z,1.90
2018-01-17T18:50:24.253Z,2.00
2018-01-17T18:52:52.497Z,1.90
2018-01-17T18:55:19.980Z,1.90
2018-01-17T18:57:48.228Z,1.90
2018-01-17T19:00:15.735Z,1.90
2018-01-17T19:02:43.976Z,2.00
2018-01-17T19:05:11.458Z,2.00
2018-01-17T19:07:39.705Z,2.10
2018-01-17T19:10:07.263Z,2.10
2018-01-17T19:12:34.802Z,2.10
2018-01-17T19:15:02.293Z,2.10
2018-01-17T19:17:29.829Z,2.10
2018-01-17T19:19:57.421Z,2.10
2018-01-17T19:22:24.974Z,2.20
2018-01-17T19:24:52.498Z,2.20
2018-01-17T19:27:20.000Z,2.10
2018-01-17T19:29:47.509Z,2.10
2018-01-17T19:32:15.065Z,2.10
2018-01-17T19:34:42.562Z,2.20
2018-01-17T19:37:10.110Z,2.20
2018-01-17T19:39:37.684Z,2.30
2018-01-17T19:42:05.180Z,2.30
2018-01-17T19:44:32.722Z,2.30
2018-01-17T19:47:01.014Z,2.30
2018-01-17T19:49:28.508Z,2.30
2018-01-17T19:51:56.018Z,2.30
2018-01-17T19:54:24.340Z,2.40
2018-01-17T19:56:51.943Z,2.40
2018-01-17T19:59:19.488Z,2.30
2018-01-17T20:01:46.997Z,2.40
2018-01-17T20:04:15.401Z,2.40
2018-01-17T20:06:42.969Z,2.40
2018-01-17T20:09:10.459Z,2.40
2018-01-17T20:11:37.976Z,2.40
2018-01-17T20:14:05.541Z,2.30
2018-01-17T20:16:33.120Z,2.30
2018-01-17T20:19:00.690Z,2.30
2018-01-17T20:21:28.221Z,2.30
2018-01-17T20:23:55.739Z,2.30
2018-01-17T20:26:24.080Z,2.30
2018-01-17T20:28:51.619Z,2.30
2018-01-17T20:31:19.254Z,2.30
2018-01-17T20:33:46.826Z,2.30
2018-01-17T20:36:14.353Z,2.30
2018-01-17T20:38:41.947Z,2.30
2018-01-17T20:41:09.523Z,2.30
2018-01-17T20:43:37.088Z,2.30
2018-01-17T20:46:04.619Z,2.30
2018-01-17T20:48:32.245Z,2.40
2018-01-17T20:50:59.746Z,2.40
2018-01-17T20:53:27.253Z,2.40
2018-01-17T20:55:54.798Z,2.40
2018-01-17T20:58:22.341Z,2.40
2018-01-17T21:00:49.897Z,2.40
2018-01-17T21:03:17.450Z,2.50
2018-01-17T21:05:45.031Z,2.40
2018-01-17T21:08:12.539Z,2.50
2018-01-17T21:10:40.857Z,2.40
2018-01-17T21:13:08.482Z,2.40
2018-01-17T21:15:36.760Z,2.60
2018-01-17T21:18:05.035Z,2.60
2018-01-17T21:20:33.358Z,2.60
2018-01-17T21:23:00.849Z,2.50
2018-01-17T21:25:28.456Z,2.50
2018-01-17T21:27:56.006Z,2.60
2018-01-17T21:30:23.534Z,2.60
2018-01-17T21:32:51.086Z,2.70
2018-01-17T21:35:18.633Z,2.70
2018-01-17T21:37:46.888Z,2.70
2018-01-17T21:40:14.417Z,2.70
2018-01-17T21:42:48.350Z,2.60
2018-01-17T21:45:21.581Z,2.60
2018-01-17T21:47:49.081Z,2.70
2018-01-17T21:50:17.473Z,2.60
2018-01-17T21:52:45.083Z,2.60
2018-01-17T21:55:12.569Z,2.60
2018-01-17T21:57:40.857Z,2.60
2018-01-17T22:00:08.369Z,2.50
2018-01-17T22:02:35.921Z,2.60
2018-01-17T22:05:04.241Z,2.60
2018-01-17T22:07:31.754Z,2.50
2018-01-17T22:09:59.221Z,2.60
2018-01-17T22:12:26.704Z,2.60
2018-01-17T22:14:54.214Z,2.70
2018-01-17T22:17:21.697Z,2.60
2018-01-17T22:19:49.169Z,2.60
2018-01-17T22:22:16.654Z,2.70
2018-01-17T22:24:44.943Z,2.70
2018-01-17T22:27:13.471Z,2.70
2018-01-17T22:29:40.936Z,2.70
2018-01-17T22:32:08.417Z,2.70
2018-01-17T22:34:35.896Z,2.70
2018-01-17T22:37:04.144Z,2.70
2018-01-17T22:39:37.405Z,2.70
2018-01-17T22:42:04.888Z,2.60
2018-01-17T22:44:32.353Z,2.70
2018-01-17T22:46:59.836Z,2.70
2018-01-17T22:49:28.078Z,2.50
2018-01-17T22:51:56.332Z,2.60
2018-01-17T22:54:23.807Z,2.60
2018-01-17T22:56:51.284Z,2.50
2018-01-17T22:59:18.756Z,2.50
2018-01-17T23:01:46.251Z,2.60
2018-01-17T23:04:13.720Z,2.60
2018-01-17T23:06:41.196Z,2.60
2018-01-17T23:09:08.810Z,2.60
2018-01-17T23:11:37.050Z,2.60
2018-01-17T23:14:04.533Z,2.60
2018-01-17T23:16:32.775Z,2.60
2018-01-17T23:19:00.248Z,2.50
2018-01-17T23:21:27.718Z,2.60
2018-01-17T23:23:55.188Z,2.70
2018-01-17T23:26:23.430Z,2.70
2018-01-17T23:28:50.911Z,2.70
2018-01-17T23:31:18.392Z,2.70
2018-01-17T23:33:46.637Z,2.70
2018-01-17T23:36:14.096Z,2.70
2018-01-17T23:38:41.586Z,2.80
2018-01-17T23:41:09.829Z,2.80
2018-01-17T23:43:37.305Z,2.80
2018-01-17T23:46:05.549Z,2.80
2018-01-17T23:48:33.034Z,2.80
2018-01-17T23:51:00.501Z,2.80
2018-01-17T23:53:28.750Z,2.80
2018-01-17T23:55:56.217Z,2.80
2018-01-17T23:58:23.697Z,2.80
